createdAt,value
2022-08-17T00:02:43.185Z,20
2022-08-17T00:08:46.937Z,20
2022-08-17T00:10:48.701Z,20
2022-08-17T00:12:50.464Z,19.9
2022-08-17T00:16:57.797Z,19.8
2022-08-17T00:19:07.639Z,19.8
2022-08-17T00:27:06.416Z,19.6
2022-08-17T00:29:19.708Z,19.6
2022-08-17T00:35:16.991Z,19.5
2022-08-17T00:39:20.531Z,19.5
2022-08-17T00:43:27.614Z,19.7
2022-08-17T00:45:29.387Z,19.7
2022-08-17T00:52:37.337Z,19.8
2022-08-17T00:54:41.887Z,19.9
2022-08-17T00:58:46.162Z,19.7
2022-08-17T01:00:47.997Z,19.7
2022-08-17T01:02:49.756Z,19.6
2022-08-17T01:04:53.126Z,19.6
2022-08-17T01:08:57.681Z,19.5
2022-08-17T01:11:02.188Z,19.5
2022-08-17T01:15:05.472Z,19.5
2022-08-17T01:17:07.249Z,19.4
2022-08-17T01:19:09.060Z,19.4
2022-08-17T01:21:10.810Z,19.3
2022-08-17T01:23:12.631Z,19.2
2022-08-17T01:25:17.869Z,19.2
2022-08-17T01:27:20.684Z,19.2
2022-08-17T01:29:21.419Z,19.2
2022-08-17T01:31:23.213Z,19.1
2022-08-17T01:35:26.744Z,19
2022-08-17T01:37:28.517Z,18.9
2022-08-17T02:02:59.543Z,18.8
2022-08-17T02:15:13.724Z,18.8
2022-08-17T02:21:22.531Z,18.9
2022-08-17T02:23:24.318Z,18.9
2022-08-17T02:25:26.275Z,18.9
2022-08-17T02:29:29.666Z,19
2022-08-17T02:31:31.444Z,18.9
2022-08-17T02:33:42.246Z,18.9
2022-08-17T02:39:42.177Z,18.9
2022-08-17T02:42:46.599Z,18.9
2022-08-17T02:44:48.262Z,19
2022-08-17T02:50:57.097Z,19
2022-08-17T02:53:01.738Z,19.1
2022-08-17T02:55:00.659Z,19.1
2022-08-17T02:59:04.210Z,19.1
2022-08-17T03:03:11.271Z,19.2
2022-08-17T03:05:13.044Z,19.2
2022-08-17T03:07:14.825Z,19.2
2022-08-17T03:11:18.364Z,19.3
2022-08-17T03:13:20.177Z,19.3
2022-08-17T03:15:21.923Z,19.2
2022-08-17T03:19:29.025Z,19.3
2022-08-17T03:21:30.808Z,19.3
2022-08-17T03:23:32.574Z,19.3
2022-08-17T03:29:37.900Z,19.3
2022-08-17T03:33:44.966Z,19.2
2022-08-17T03:35:46.759Z,19.2
2022-08-17T03:42:07.667Z,19.2
2022-08-17T03:44:12.935Z,19.2
2022-08-17T03:46:28.367Z,19.2
2022-08-17T03:50:18.255Z,19.2
2022-08-17T03:52:20.063Z,19.2
2022-08-17T03:56:23.651Z,19.2
2022-08-17T03:58:28.882Z,19.2
2022-08-17T04:00:30.639Z,19.2
2022-08-17T04:02:32.431Z,19.2
2022-08-17T04:04:34.214Z,19.2
2022-08-17T04:06:35.996Z,19.2
2022-08-17T04:10:45.276Z,19.2
2022-08-17T04:12:44.825Z,19.2
2022-08-17T04:14:53.186Z,19.2
2022-08-17T04:18:50.166Z,19.3
2022-08-17T04:20:51.946Z,19.2
2022-08-17T04:22:53.738Z,19.2
2022-08-17T04:24:55.509Z,19.1
2022-08-17T04:29:02.573Z,19.1
2022-08-17T04:31:04.353Z,19.1
2022-08-17T04:32:06.992Z,19.2
2022-08-17T04:38:12.340Z,19.2
2022-08-17T04:46:23.273Z,19.1
2022-08-17T04:48:33.388Z,19.1
2022-08-17T04:50:26.505Z,19.2
2022-08-17T04:52:32.183Z,19.2
2022-08-17T04:56:35.278Z,19.3
2022-08-17T05:04:42.406Z,19.3
2022-08-17T05:27:09.002Z,19.8
2022-08-17T05:32:38.734Z,20
2022-08-17T05:34:16.964Z,20
2022-08-17T05:36:41.862Z,20
2022-08-17T05:38:24.028Z,20
2022-08-17T05:40:25.813Z,20
2022-08-17T05:48:39.787Z,20.1
2022-08-17T05:52:39.998Z,19.9
2022-08-17T06:00:47.169Z,19.8
2022-08-17T06:02:49.243Z,19.8
2022-08-17T06:08:57.709Z,19.8
2022-08-17T06:13:01.308Z,19.9
2022-08-17T06:15:03.059Z,19.9
2022-08-17T06:17:04.813Z,19.9
2022-08-17T06:19:10.131Z,20.1
2022-08-17T06:21:11.899Z,20.1
2022-08-17T06:23:13.687Z,20.2
2022-08-17T06:24:16.314Z,20.4
2022-08-17T06:26:18.095Z,20.5
2022-08-17T06:28:19.865Z,20.9
2022-08-17T06:32:26.926Z,22.8
2022-08-17T06:36:30.486Z,23.6
2022-08-17T06:38:37.702Z,22.9
2022-08-17T06:40:34.010Z,22
2022-08-17T06:48:44.617Z,20.8
2022-08-17T06:50:46.362Z,20.9
2022-08-17T06:52:48.189Z,20.9
2022-08-17T06:56:55.061Z,21
2022-08-17T07:01:00.387Z,21.1
2022-08-17T07:03:02.148Z,21.2
2022-08-17T07:05:03.877Z,21.3
2022-08-17T07:07:05.607Z,21.6
2022-08-17T07:09:07.413Z,21.6
2022-08-17T07:11:09.159Z,21.6
2022-08-17T07:15:16.179Z,21.7
2022-08-17T07:17:17.941Z,21.6
2022-08-17T07:19:19.721Z,21.5
2022-08-17T07:23:39.163Z,21.6
2022-08-17T07:25:40.912Z,21.8
2022-08-17T07:29:47.968Z,22.8
2022-08-17T07:31:49.720Z,22.8
2022-08-17T07:33:51.462Z,23.7
2022-08-17T07:37:54.994Z,22.7
2022-08-17T07:39:59.729Z,23
2022-08-17T07:42:02.060Z,22.5
2022-08-17T07:44:03.772Z,22.4
2022-08-17T07:46:05.520Z,22.2
2022-08-17T07:48:07.273Z,22.3
2022-08-17T07:50:09.043Z,22.5
2022-08-17T07:52:48.394Z,22.2
2022-08-17T07:54:14.754Z,22.1
2022-08-17T07:56:17.831Z,22.1
2022-08-17T08:00:23.882Z,23
2022-08-17T08:04:49.694Z,24.2
2022-08-17T08:06:26.623Z,24.8
2022-08-17T08:10:37.413Z,23.3
2022-08-17T08:14:37.059Z,23
2022-08-17T08:17:41.406Z,23
2022-08-17T08:19:43.136Z,23.2
2022-08-17T08:25:53.627Z,22.6
2022-08-17T08:27:53.595Z,22.9
2022-08-17T08:29:55.323Z,23
2022-08-17T08:31:57.062Z,22.7
2022-08-17T08:33:58.788Z,22.7
2022-08-17T08:36:00.577Z,22.7
2022-08-17T08:38:05.768Z,22.9
2022-08-17T08:40:07.621Z,22.9
2022-08-17T08:42:09.286Z,23.2
2022-08-17T08:44:10.998Z,23
2022-08-17T08:46:12.720Z,22.7
2022-08-17T08:48:22.832Z,22.7
2022-08-17T08:50:37.260Z,22.7
2022-08-17T08:52:23.461Z,23.1
2022-08-17T08:54:26.926Z,23.3
2022-08-17T08:56:24.921Z,23.7
2022-08-17T08:58:31.632Z,23.4
2022-08-17T09:00:28.397Z,23.6
2022-08-17T09:02:30.141Z,24
2022-08-17T09:04:44.946Z,24.5
2022-08-17T09:06:39.829Z,24.7
2022-08-17T09:08:38.858Z,24.3
2022-08-17T09:10:40.601Z,24.2
2022-08-17T09:12:01.062Z,24.1
2022-08-17T09:13:44.939Z,24.3
2022-08-17T09:15:46.658Z,24.9
2022-08-17T09:17:48.377Z,25.1
2022-08-17T09:19:53.629Z,24.6
2022-08-17T09:21:55.354Z,24.5
2022-08-17T09:23:57.066Z,23.8
2022-08-17T09:25:58.778Z,23.7
2022-08-17T09:28:00.905Z,24
2022-08-17T09:32:03.987Z,24.3
2022-08-17T09:38:12.587Z,24.7
2022-08-17T09:40:14.382Z,25.5
2022-08-17T09:42:16.007Z,25.6
2022-08-17T09:44:23.309Z,25.9
2022-08-17T09:46:19.433Z,25.9
2022-08-17T09:51:03.894Z,25.6
2022-08-17T09:52:27.955Z,25.5
2022-08-17T09:54:39.201Z,26.3
2022-08-17T09:56:31.308Z,26
2022-08-17T09:58:32.968Z,26.3
2022-08-17T10:00:34.635Z,25.5
2022-08-17T10:02:39.822Z,25.2
2022-08-17T10:04:41.476Z,25.2
2022-08-17T10:06:43.137Z,25.4
2022-08-17T10:07:45.759Z,24.8
2022-08-17T10:09:47.387Z,24.8
2022-08-17T10:11:50.365Z,24.8
2022-08-17T10:13:53.314Z,24.9
2022-08-17T10:17:57.595Z,24.6
2022-08-17T10:19:59.266Z,24.8
2022-08-17T10:22:14.904Z,24.5
2022-08-17T10:28:06.000Z,24.4
2022-08-17T10:30:11.213Z,24.3
2022-08-17T10:32:12.898Z,24.4
2022-08-17T10:38:17.967Z,24.2
2022-08-17T10:40:19.736Z,23.9
2022-08-17T10:46:30.890Z,24.8
2022-08-17T10:48:29.986Z,24.9
2022-08-17T10:50:31.696Z,24.9
2022-08-17T10:52:33.396Z,24.6
2022-08-17T10:54:35.118Z,24.7
2022-08-17T10:56:36.823Z,24.7
2022-08-17T10:58:42.097Z,24.9
2022-08-17T11:00:43.838Z,24.9
2022-08-17T11:05:02.692Z,24.5
2022-08-17T11:11:11.288Z,25.1
2022-08-17T11:15:14.707Z,24.8
2022-08-17T11:17:16.418Z,24.8
2022-08-17T11:19:18.106Z,25.2
2022-08-17T11:21:19.797Z,25.3
2022-08-17T11:23:21.516Z,25.2
2022-08-17T11:25:26.748Z,25.1
2022-08-17T11:27:28.451Z,24.9
2022-08-17T11:29:30.137Z,24.6
2022-08-17T11:31:38.712Z,24.6
2022-08-17T11:33:33.539Z,24.8
2022-08-17T11:35:35.235Z,24.8
2022-08-17T11:37:36.961Z,24.9
2022-08-17T11:39:42.256Z,25.2
2022-08-17T11:41:43.886Z,24.9
2022-08-17T11:43:45.599Z,25
2022-08-17T11:45:47.302Z,25.1
2022-08-17T11:49:50.720Z,24.6
2022-08-17T11:51:52.429Z,24.8
2022-08-17T11:54:21.458Z,24.8
2022-08-17T11:55:59.372Z,24.8
2022-08-17T11:58:01.063Z,24.8
2022-08-17T11:59:03.683Z,24.6
2022-08-17T12:05:09.722Z,24.5
2022-08-17T12:07:14.074Z,24
2022-08-17T12:15:20.947Z,24
2022-08-17T12:17:40.938Z,24
2022-08-17T12:19:24.377Z,24
2022-08-17T12:21:29.640Z,24.1
2022-08-17T12:23:31.363Z,24.1
2022-08-17T12:25:33.279Z,23.9
2022-08-17T12:31:38.277Z,23.7
2022-08-17T12:33:40.029Z,23.8
2022-08-17T12:37:47.156Z,23.7
2022-08-17T12:39:48.821Z,23.8
2022-08-17T12:41:50.558Z,23.8
2022-08-17T12:43:52.285Z,24.1
2022-08-17T12:45:54.034Z,24.3
2022-08-17T12:47:57.452Z,24.5
2022-08-17T12:50:02.715Z,24.6
2022-08-17T12:52:04.365Z,24.6
2022-08-17T12:54:06.100Z,24.6
2022-08-17T12:55:08.724Z,24.4
2022-08-17T13:03:19.235Z,23.5
2022-08-17T13:05:20.953Z,23.3
2022-08-17T13:11:26.207Z,22.7
2022-08-17T13:13:27.978Z,22.6
2022-08-17T13:15:29.747Z,22.5
2022-08-17T13:19:40.782Z,22.3
2022-08-17T13:21:38.493Z,22.2
2022-08-17T13:23:40.238Z,22
2022-08-17T13:27:43.816Z,21.9
2022-08-17T13:29:45.532Z,21.7
2022-08-17T13:31:53.003Z,21.6
2022-08-17T13:35:54.317Z,21.6
2022-08-17T13:37:56.084Z,21.6
2022-08-17T13:39:57.937Z,21.6
2022-08-17T13:41:59.633Z,21.6
2022-08-17T13:44:01.410Z,21.6
2022-08-17T13:46:06.677Z,21.6
2022-08-17T13:48:08.440Z,21.6
2022-08-17T13:50:10.225Z,21.6
2022-08-17T13:51:12.864Z,21.5
2022-08-17T13:59:48.195Z,21.7
2022-08-17T14:03:26.989Z,21.8
2022-08-17T14:07:30.545Z,21.9
2022-08-17T14:09:36.792Z,21.8
2022-08-17T14:13:39.354Z,21.6
2022-08-17T14:23:54.323Z,21.5
2022-08-17T14:31:58.801Z,21.6
2022-08-17T14:36:02.355Z,21.5
2022-08-17T14:38:04.116Z,21.5
2022-08-17T14:40:05.974Z,21.6
2022-08-17T14:42:11.161Z,21.7
2022-08-17T14:44:12.929Z,21.7
2022-08-17T14:46:14.702Z,21.9
2022-08-17T14:50:35.760Z,21.9
2022-08-17T14:52:35.324Z,21.9
2022-08-17T14:54:45.605Z,21.9
2022-08-17T14:56:42.359Z,21.9
2022-08-17T14:58:44.143Z,21.8
2022-08-17T15:00:45.911Z,21.8
2022-08-17T15:04:49.468Z,21.7
2022-08-17T15:06:51.219Z,21.6
2022-08-17T15:08:56.523Z,21.5
2022-08-17T15:10:58.290Z,21.4
2022-08-17T15:13:00.074Z,21.5
2022-08-17T15:15:01.894Z,21.4
2022-08-17T15:17:03.594Z,21.5
2022-08-17T15:19:05.359Z,21.5
2022-08-17T15:21:07.159Z,21.7
2022-08-17T15:25:14.150Z,21.9
2022-08-17T15:27:15.918Z,22.2
2022-08-17T15:29:17.687Z,22.4
2022-08-17T15:31:19.461Z,22.8
2022-08-17T15:33:21.193Z,23.7
2022-08-17T15:37:28.234Z,24.1
2022-08-17T15:41:31.757Z,23.2
2022-08-17T15:42:34.393Z,23.2
2022-08-17T15:44:36.151Z,23
2022-08-17T15:46:37.886Z,22.6
2022-08-17T15:48:39.644Z,22.5
2022-08-17T15:54:48.401Z,22.1
2022-08-17T15:56:50.138Z,22
2022-08-17T15:58:51.884Z,22
2022-08-17T16:05:00.703Z,21.7
2022-08-17T16:07:02.403Z,21.7
2022-08-17T16:11:05.896Z,21.6
2022-08-17T16:15:09.404Z,21.5
2022-08-17T16:17:39.624Z,21.5
2022-08-17T16:31:27.006Z,21.3
2022-08-17T16:33:32.255Z,21.4
2022-08-17T16:35:34.029Z,21.3
2022-08-17T16:38:38.420Z,21.2
2022-08-17T16:40:40.220Z,21.1
2022-08-17T16:42:41.968Z,21.2
2022-08-17T16:44:43.734Z,21.1
2022-08-17T16:51:03.120Z,21.1
2022-08-17T16:58:59.596Z,21.2
2022-08-17T17:03:06.652Z,21.4
2022-08-17T17:07:20.493Z,21.4
2022-08-17T17:09:11.951Z,21.5
2022-08-17T17:11:13.747Z,21.6
2022-08-17T17:13:15.507Z,21.5
2022-08-17T17:17:22.556Z,21.5
2022-08-17T17:19:34.340Z,21.3
2022-08-17T17:21:29.019Z,21.2
2022-08-17T17:23:39.255Z,21.3
2022-08-17T17:29:48.136Z,21
2022-08-17T17:31:38.471Z,21
2022-08-17T17:34:44.177Z,21.1
2022-08-17T17:38:46.409Z,20.9
2022-08-17T17:40:48.178Z,20.8
2022-08-17T17:48:58.780Z,20.8
2022-08-17T17:51:00.558Z,20.8
2022-08-17T17:55:04.116Z,20.6
2022-08-17T17:57:09.376Z,20.5
2022-08-17T17:59:12.701Z,20.4
2022-08-17T18:01:12.974Z,20.4
2022-08-17T18:03:14.712Z,20.4
2022-08-17T18:05:16.483Z,20.4
2022-08-17T18:07:18.260Z,20.4
2022-08-17T18:09:20.042Z,20.4
2022-08-17T18:13:27.328Z,20.4
2022-08-17T18:15:28.862Z,20.2
2022-08-17T18:17:30.629Z,20.2
2022-08-17T18:19:32.421Z,20.2
2022-08-17T18:21:34.194Z,20.2
2022-08-17T18:23:35.999Z,20
2022-08-17T18:25:41.896Z,20
2022-08-17T18:27:51.786Z,19.9
2022-08-17T18:32:01.955Z,19.8
2022-08-17T18:34:03.703Z,19.8
2022-08-17T18:36:05.745Z,19.8
2022-08-17T18:40:14.351Z,19.7
2022-08-17T18:42:17.699Z,19.6
2022-08-17T18:44:19.447Z,19.6
2022-08-17T18:48:29.029Z,19.5
2022-08-17T18:50:24.800Z,19.4
2022-08-17T18:52:30.070Z,19.4
2022-08-17T18:56:33.801Z,19.4
2022-08-17T19:00:37.181Z,19.4
2022-08-17T19:02:45.626Z,19.4
2022-08-17T19:06:46.044Z,19.3
2022-08-17T19:08:50.791Z,19.3
2022-08-17T19:12:51.329Z,19.3
2022-08-17T19:14:53.246Z,19.4
2022-08-17T19:16:54.907Z,19.5
2022-08-17T19:21:01.986Z,19.5
2022-08-17T19:23:03.811Z,19.6
2022-08-17T19:28:21.481Z,19.5
2022-08-17T19:30:11.730Z,19.5
2022-08-17T19:44:29.383Z,19.3
2022-08-17T19:46:29.488Z,19.3
2022-08-17T19:52:38.311Z,19.4
2022-08-17T19:54:40.071Z,19.5
2022-08-17T20:02:51.622Z,19.5
2022-08-17T20:04:56.681Z,19.4
2022-08-17T20:06:54.283Z,19.5
2022-08-17T20:10:57.814Z,19.4
2022-08-17T20:12:59.601Z,19.4
2022-08-17T20:15:01.392Z,19.5
2022-08-17T20:19:08.449Z,19.6
2022-08-17T20:28:18.186Z,19.7
2022-08-17T20:34:33.684Z,19.7
2022-08-17T20:36:28.829Z,19.7
2022-08-17T20:38:30.576Z,19.7
2022-08-17T20:46:41.234Z,19.7
2022-08-17T20:48:43.225Z,19.7
2022-08-17T20:50:44.759Z,19.6
2022-08-17T20:52:46.536Z,19.5
2022-08-17T20:54:48.344Z,19.5
2022-08-17T21:00:57.322Z,19.5
2022-08-17T21:02:58.951Z,19.5
2022-08-17T21:05:00.754Z,19.5
2022-08-17T21:07:02.516Z,19.5
2022-08-17T21:09:04.966Z,19.5
2022-08-17T21:11:08.158Z,19.5
2022-08-17T21:15:13.179Z,19.4
2022-08-17T21:17:15.114Z,19.3
2022-08-17T21:18:17.930Z,19.3
2022-08-17T21:20:22.532Z,19.2
2022-08-17T21:22:21.163Z,19.3
2022-08-17T21:26:30.861Z,19.1
2022-08-17T21:28:33.879Z,19
2022-08-17T21:34:35.352Z,19
2022-08-17T21:36:37.143Z,18.8
2022-08-17T21:38:38.918Z,18.9
2022-08-17T21:42:45.993Z,18.9
2022-08-17T21:44:47.985Z,18.8
2022-08-17T21:46:50.761Z,18.8
2022-08-17T21:48:54.262Z,18.8
2022-08-17T21:55:00.200Z,18.9
2022-08-17T21:57:01.982Z,19
2022-08-17T21:59:03.776Z,18.9
2022-08-17T22:03:07.354Z,18.9
2022-08-17T22:05:09.131Z,18.9
2022-08-17T22:11:18.003Z,18.9
2022-08-17T22:13:19.961Z,18.9
2022-08-17T22:15:41.951Z,18.8
2022-08-17T22:17:43.740Z,18.7
2022-08-17T22:19:45.522Z,18.7
2022-08-17T22:21:50.840Z,18.7
2022-08-17T22:23:52.632Z,18.7
2022-08-17T22:27:56.168Z,18.7
2022-08-17T22:29:58.232Z,18.8
2022-08-17T22:34:01.539Z,18.7
2022-08-17T22:36:07.693Z,18.7
2022-08-17T22:38:08.628Z,18.7
2022-08-17T22:40:10.574Z,18.7
2022-08-17T22:42:12.213Z,18.7
2022-08-17T22:44:14.018Z,18.6
2022-08-17T22:46:15.758Z,18.6
2022-08-17T22:48:17.577Z,18.6
2022-08-17T22:50:22.843Z,18.5
2022-08-17T22:52:29.960Z,18.5
2022-08-17T22:56:28.221Z,18.4
2022-08-17T22:58:30.026Z,18.5
2022-08-17T23:00:31.953Z,18.5
2022-08-17T23:02:33.675Z,18.5
2022-08-17T23:06:40.650Z,18.6
2022-08-17T23:08:42.451Z,18.6
2022-08-17T23:09:45.071Z,18.5
2022-08-17T23:11:49.801Z,18.5
2022-08-17T23:13:48.670Z,18.5
2022-08-17T23:15:50.464Z,18.5
2022-08-17T23:17:55.878Z,18.5
2022-08-17T23:21:59.337Z,18.5
2022-08-17T23:24:01.108Z,18.5
2022-08-17T23:28:04.674Z,18.3
2022-08-17T23:32:11.759Z,18.3
2022-08-17T23:34:13.537Z,18.2
2022-08-17T23:36:15.316Z,18.2
2022-08-17T23:38:17.123Z,18.2
2022-08-17T23:40:18.886Z,18.1
2022-08-17T23:42:20.672Z,18.1
2022-08-17T23:46:27.756Z,18.1
2022-08-17T23:48:36.650Z,18
2022-08-17T23:50:31.371Z,18.1
2022-08-17T23:52:33.156Z,18.1
2022-08-17T23:54:34.962Z,18.1
2022-08-17T23:58:38.666Z,18.1
